createdAt,value
2023-04-25T00:01:06.099Z,8.80
2023-04-25T00:03:34.251Z,9.10
2023-04-25T00:06:04.258Z,9.20
2023-04-25T00:08:31.635Z,9.10
2023-04-25T00:10:59.510Z,9.00
2023-04-25T00:13:27.742Z,8.80
2023-04-25T00:15:54.831Z,8.70
2023-04-25T00:18:21.887Z,8.80
2023-04-25T00:20:49.153Z,8.80
2023-04-25T00:23:19.422Z,8.80
2023-04-25T00:25:47.171Z,8.80
2023-04-25T00:28:14.801Z,8.90
2023-04-25T00:30:43.053Z,9.00
2023-04-25T00:33:11.059Z,8.90
2023-04-25T00:35:39.377Z,9.00
2023-04-25T00:38:06.493Z,8.90
2023-04-25T00:40:33.761Z,8.80
2023-04-25T00:43:01.310Z,8.90
2023-04-25T00:45:32.070Z,8.80
2023-04-25T00:47:59.172Z,9.00
2023-04-25T00:50:26.370Z,8.70
2023-04-25T00:52:53.509Z,8.60
2023-04-25T00:55:21.259Z,8.80
2023-04-25T00:57:48.823Z,8.90
2023-04-25T01:00:16.399Z,8.90
2023-04-25T01:02:46.019Z,8.90
2023-04-25T01:05:13.432Z,8.90
2023-04-25T01:07:40.641Z,8.90
2023-04-25T01:10:08.743Z,8.90
2023-04-25T01:12:36.313Z,8.80
2023-04-25T01:15:03.965Z,8.90
2023-04-25T01:17:32.529Z,8.90
2023-04-25T01:19:59.848Z,8.90
2023-04-25T01:22:27.023Z,8.90
2023-04-25T01:24:54.659Z,9.00
2023-04-25T01:27:23.851Z,8.90
2023-04-25T01:29:51.755Z,8.90
2023-04-25T01:32:19.507Z,8.90
2023-04-25T01:34:46.963Z,8.90
2023-04-25T01:37:14.166Z,8.90
2023-04-25T01:39:41.794Z,8.90
2023-04-25T01:42:08.910Z,8.70
2023-04-25T01:44:36.070Z,8.90
2023-04-25T01:47:03.323Z,8.80
2023-04-25T01:49:31.985Z,8.90
2023-04-25T01:51:59.790Z,8.90
2023-04-25T01:54:27.015Z,8.90
2023-04-25T01:56:54.341Z,8.90
2023-04-25T01:59:22.995Z,8.90
2023-04-25T02:02:12.652Z,9.00
2023-04-25T02:04:40.984Z,8.90
2023-04-25T02:07:09.128Z,8.60
2023-04-25T02:09:51.803Z,8.40
2023-04-25T02:12:20.454Z,8.10
2023-04-25T02:15:06.993Z,8.00
2023-04-25T02:17:41.646Z,8.20
2023-04-25T02:20:09.219Z,8.20
2023-04-25T02:22:36.536Z,8.10
2023-04-25T02:25:06.775Z,8.10
2023-04-25T02:27:33.871Z,8.00
2023-04-25T02:30:01.155Z,8.00
2023-04-25T02:32:28.255Z,8.00
2023-04-25T02:34:55.471Z,8.10
2023-04-25T02:37:22.632Z,8.20
2023-04-25T02:39:49.761Z,8.10
2023-04-25T02:42:16.859Z,7.90
2023-04-25T02:44:43.996Z,7.80
2023-04-25T02:47:11.248Z,7.80
2023-04-25T02:49:38.436Z,8.00
2023-04-25T02:52:05.669Z,7.80
2023-04-25T02:54:33.233Z,7.80
2023-04-25T02:57:02.025Z,7.60
2023-04-25T02:59:33.764Z,8.00
2023-04-25T03:02:01.066Z,8.10
2023-04-25T03:04:28.547Z,7.90
2023-04-25T03:06:56.175Z,8.00
2023-04-25T03:09:23.317Z,7.90
2023-04-25T03:11:50.669Z,8.00
2023-04-25T03:14:20.188Z,8.00
2023-04-25T03:16:47.357Z,7.90
2023-04-25T03:19:17.023Z,7.90
2023-04-25T03:21:45.266Z,7.70
2023-04-25T03:24:13.544Z,8.10
2023-04-25T03:26:40.682Z,7.70
2023-04-25T03:29:09.189Z,7.90
2023-04-25T03:31:37.236Z,7.60
2023-04-25T03:34:04.363Z,7.70
2023-04-25T03:36:32.057Z,7.70
2023-04-25T03:38:59.220Z,7.70
2023-04-25T03:41:27.616Z,7.80
2023-04-25T03:44:02.956Z,7.60
2023-04-25T03:46:30.212Z,7.70
2023-04-25T03:48:57.501Z,7.80
2023-04-25T03:51:41.921Z,7.80
2023-04-25T03:54:09.116Z,7.60
2023-04-25T03:56:55.984Z,7.70
2023-04-25T03:59:27.225Z,7.60
2023-04-25T04:01:54.399Z,7.70
2023-04-25T04:04:22.269Z,7.70
2023-04-25T04:06:49.738Z,7.90
2023-04-25T04:09:22.797Z,8.10
2023-04-25T04:11:50.161Z,7.60
2023-04-25T04:14:17.800Z,7.60
2023-04-25T04:16:47.101Z,7.50
2023-04-25T04:19:14.286Z,7.80
2023-04-25T04:21:46.327Z,8.00
2023-04-25T04:24:13.565Z,8.20
2023-04-25T04:26:51.740Z,8.30
2023-04-25T04:29:37.726Z,8.30
2023-04-25T04:32:31.610Z,8.40
2023-04-25T04:34:59.187Z,8.30
2023-04-25T04:37:26.474Z,8.30
2023-04-25T04:39:53.584Z,8.20
2023-04-25T04:42:39.234Z,8.20
2023-04-25T04:45:25.033Z,8.30
2023-04-25T04:48:13.005Z,8.30
2023-04-25T04:50:56.921Z,8.30
2023-04-25T04:53:53.347Z,8.20
2023-04-25T04:56:38.944Z,8.20
2023-04-25T04:59:28.909Z,8.10
2023-04-25T05:02:29.190Z,8.10
2023-04-25T05:05:09.492Z,8.00
2023-04-25T05:07:36.611Z,7.70
2023-04-25T05:10:23.217Z,7.90
2023-04-25T05:13:16.746Z,8.00
2023-04-25T05:16:02.332Z,7.90
2023-04-25T05:18:55.535Z,7.80
2023-04-25T05:21:44.222Z,8.00
2023-04-25T05:24:40.580Z,7.90
2023-04-25T05:27:28.172Z,7.80
2023-04-25T05:30:27.247Z,7.90
2023-04-25T05:33:11.116Z,7.80
2023-04-25T05:35:39.260Z,7.60
2023-04-25T05:38:06.537Z,7.60
2023-04-25T05:40:59.498Z,7.70
2023-04-25T05:43:48.417Z,7.80
2023-04-25T05:46:25.729Z,7.80
2023-04-25T05:49:08.598Z,7.90
2023-04-25T05:51:42.348Z,7.70
2023-04-25T05:54:41.658Z,7.60
2023-04-25T05:57:08.872Z,7.70
2023-04-25T05:59:36.924Z,7.60
2023-04-25T06:02:04.318Z,7.70
2023-04-25T06:04:35.737Z,7.60
2023-04-25T06:07:03.059Z,7.60
2023-04-25T06:09:30.207Z,7.70
2023-04-25T06:11:57.323Z,7.80
2023-04-25T06:14:24.868Z,7.90
2023-04-25T06:16:52.527Z,7.90
2023-04-25T06:19:19.622Z,7.80
2023-04-25T06:21:46.728Z,7.80
2023-04-25T06:24:13.808Z,8.00
2023-04-25T06:26:41.034Z,8.10
2023-04-25T06:29:08.142Z,8.00
2023-04-25T06:31:35.589Z,8.00
2023-04-25T06:34:03.506Z,8.20
2023-04-25T06:36:33.601Z,8.10
2023-04-25T06:39:06.623Z,8.10
2023-04-25T06:41:34.136Z,8.10
2023-04-25T06:44:06.279Z,7.90
2023-04-25T06:46:39.135Z,7.90
2023-04-25T06:49:06.487Z,7.90
2023-04-25T06:51:34.316Z,8.00
2023-04-25T06:54:01.601Z,7.70
2023-04-25T06:56:40.057Z,7.70
2023-04-25T06:59:16.322Z,7.70
2023-04-25T07:01:46.551Z,7.80
2023-04-25T07:04:20.969Z,7.70
2023-04-25T07:06:56.106Z,7.70
2023-04-25T07:09:38.867Z,7.80
2023-04-25T07:12:06.367Z,7.80
2023-04-25T07:14:34.605Z,7.80
2023-04-25T07:17:02.257Z,7.80
2023-04-25T07:19:31.905Z,8.00
2023-04-25T07:22:01.919Z,8.00
2023-04-25T07:24:29.615Z,7.80
2023-04-25T07:26:58.967Z,7.70
2023-04-25T07:29:32.890Z,7.80
2023-04-25T07:32:01.245Z,7.90
2023-04-25T07:34:28.582Z,7.80
2023-04-25T07:36:55.662Z,7.70
2023-04-25T07:39:24.882Z,7.70
2023-04-25T07:41:54.484Z,7.60
2023-04-25T07:44:26.945Z,7.50
2023-04-25T07:46:54.212Z,7.40
2023-04-25T07:49:21.568Z,7.40
2023-04-25T07:51:50.008Z,7.40
2023-04-25T07:54:19.728Z,7.40
2023-04-25T07:57:00.877Z,7.30
2023-04-25T07:59:30.816Z,7.40
2023-04-25T08:02:02.120Z,7.70
2023-04-25T08:04:30.025Z,7.90
2023-04-25T08:07:05.620Z,8.00
2023-04-25T08:09:40.632Z,7.80
2023-04-25T08:12:13.596Z,7.90
2023-04-25T08:14:41.334Z,7.80
2023-04-25T08:17:08.612Z,7.70
2023-04-25T08:19:40.951Z,7.90
2023-04-25T08:22:13.844Z,7.90
2023-04-25T08:25:12.747Z,7.90
2023-04-25T08:27:41.300Z,8.00
2023-04-25T08:30:09.961Z,8.00
2023-04-25T08:32:39.848Z,7.90
2023-04-25T08:35:39.308Z,7.90
2023-04-25T08:38:07.582Z,7.80
2023-04-25T08:40:39.058Z,7.80
2023-04-25T08:43:13.713Z,7.80
2023-04-25T08:45:42.675Z,7.80
2023-04-25T08:48:17.232Z,7.90
2023-04-25T08:51:04.063Z,8.00
2023-04-25T08:53:34.014Z,8.10
2023-04-25T08:56:04.702Z,8.10
2023-04-25T08:58:36.902Z,8.10
2023-04-25T09:01:05.472Z,8.10
2023-04-25T09:03:39.450Z,7.90
2023-04-25T09:06:06.800Z,8.00
2023-04-25T09:08:35.078Z,7.90
2023-04-25T09:11:02.591Z,7.90
2023-04-25T09:13:29.967Z,8.00
2023-04-25T09:16:18.518Z,8.10
2023-04-25T09:19:04.018Z,8.20
2023-04-25T09:21:36.012Z,8.00
2023-04-25T09:24:03.831Z,8.10
2023-04-25T09:26:30.963Z,8.20
2023-04-25T09:29:09.060Z,8.30
2023-04-25T09:31:40.118Z,8.20
2023-04-25T09:34:13.043Z,8.10
2023-04-25T09:36:44.911Z,8.10
2023-04-25T09:39:23.295Z,8.20
2023-04-25T09:41:58.793Z,8.50
2023-04-25T09:44:26.566Z,8.40
2023-04-25T09:46:55.606Z,8.50
2023-04-25T09:49:27.842Z,8.40
2023-04-25T09:52:04.924Z,8.80
2023-04-25T09:54:47.406Z,8.50
2023-04-25T09:57:23.231Z,8.40
2023-04-25T09:59:55.947Z,8.60
2023-04-25T10:02:28.679Z,8.70
2023-04-25T10:05:08.898Z,9.00
2023-04-25T10:07:41.151Z,9.50
2023-04-25T10:10:16.900Z,9.80
2023-04-25T10:12:45.345Z,9.70
2023-04-25T10:15:13.452Z,9.80
2023-04-25T10:17:41.397Z,10.00
2023-04-25T10:20:12.109Z,9.60
2023-04-25T10:22:48.539Z,9.40
2023-04-25T10:25:16.464Z,9.30
2023-04-25T10:27:44.302Z,9.10
2023-04-25T10:30:16.609Z,9.10
2023-04-25T10:32:46.447Z,9.10
2023-04-25T10:35:19.291Z,9.40
2023-04-25T10:38:04.642Z,9.50
2023-04-25T10:40:32.852Z,9.40
2023-04-25T10:43:34.866Z,9.40
2023-04-25T10:46:02.068Z,9.20
2023-04-25T10:48:31.095Z,9.30
2023-04-25T10:51:11.204Z,9.40
2023-04-25T10:53:38.417Z,9.40
2023-04-25T10:56:19.319Z,9.60
2023-04-25T10:58:48.105Z,10.20
2023-04-25T11:01:21.666Z,11.00
2023-04-25T11:03:51.871Z,11.50
2023-04-25T11:06:38.267Z,10.80
2023-04-25T11:09:14.624Z,10.70
2023-04-25T11:11:41.914Z,11.30
2023-04-25T11:14:09.084Z,11.00
2023-04-25T11:16:37.497Z,11.20
2023-04-25T11:19:05.171Z,11.30
2023-04-25T11:21:32.992Z,11.60
2023-04-25T11:24:01.580Z,11.40
2023-04-25T11:26:28.954Z,11.70
2023-04-25T11:29:01.446Z,12.00
2023-04-25T11:31:28.634Z,12.00
2023-04-25T11:33:58.349Z,12.50
2023-04-25T11:36:27.068Z,12.20
2023-04-25T11:38:54.956Z,11.50
2023-04-25T11:41:23.361Z,11.50
2023-04-25T11:43:52.959Z,11.60
2023-04-25T11:46:21.320Z,11.10
2023-04-25T11:48:49.278Z,11.00
2023-04-25T11:51:16.517Z,10.90
2023-04-25T11:53:45.944Z,10.70
2023-04-25T11:56:13.524Z,10.70
2023-04-25T11:59:03.991Z,10.60
2023-04-25T12:01:35.163Z,10.40
2023-04-25T12:04:16.637Z,10.40
2023-04-25T12:06:45.417Z,10.30
2023-04-25T12:09:14.536Z,10.40
2023-04-25T12:11:49.217Z,10.60
2023-04-25T12:14:29.944Z,10.70
2023-04-25T12:16:59.397Z,10.90
2023-04-25T12:19:27.067Z,11.20
2023-04-25T12:21:58.725Z,11.10
2023-04-25T12:24:28.578Z,11.00
2023-04-25T12:27:04.707Z,11.60
2023-04-25T12:29:41.911Z,12.30
2023-04-25T12:32:16.491Z,12.10
2023-04-25T12:34:43.853Z,12.30
2023-04-25T12:37:11.626Z,12.30
2023-04-25T12:39:38.959Z,12.60
2023-04-25T12:42:09.250Z,12.10
2023-04-25T12:44:37.406Z,11.90
2023-04-25T12:47:05.273Z,11.80
2023-04-25T12:49:32.910Z,12.40
2023-04-25T12:52:00.438Z,12.30
2023-04-25T12:54:27.784Z,12.30
2023-04-25T12:56:55.946Z,12.10
2023-04-25T12:59:23.275Z,12.10
2023-04-25T13:01:50.630Z,12.70
2023-04-25T13:04:18.824Z,13.00
2023-04-25T13:06:46.392Z,12.30
2023-04-25T13:09:13.869Z,12.80
2023-04-25T13:11:42.488Z,12.90
2023-04-25T13:14:09.608Z,12.60
2023-04-25T13:16:37.167Z,12.10
2023-04-25T13:19:04.346Z,12.20
2023-04-25T13:21:33.586Z,11.70
2023-04-25T13:24:00.888Z,11.90
2023-04-25T13:26:28.101Z,12.20
2023-04-25T13:28:55.233Z,12.40
2023-04-25T13:31:22.476Z,12.60
2023-04-25T13:33:50.075Z,12.10
2023-04-25T13:36:17.518Z,12.10
2023-04-25T13:38:46.067Z,11.70
2023-04-25T13:41:18.745Z,11.50
2023-04-25T13:43:50.018Z,11.50
2023-04-25T13:46:35.244Z,11.60
2023-04-25T13:49:12.406Z,11.50
2023-04-25T13:51:41.046Z,11.30
2023-04-25T13:54:08.703Z,11.50
2023-04-25T13:56:36.179Z,11.60
2023-04-25T13:59:03.345Z,11.70
2023-04-25T14:01:32.310Z,11.80
2023-04-25T14:03:59.492Z,11.50
2023-04-25T14:06:27.033Z,11.50
2023-04-25T14:08:54.995Z,11.20
2023-04-25T14:11:22.251Z,11.10
2023-04-25T14:13:50.604Z,11.20
2023-04-25T14:16:18.333Z,11.30
2023-04-25T14:18:45.551Z,11.10
2023-04-25T14:21:12.669Z,11.00
2023-04-25T14:23:39.758Z,10.90
2023-04-25T14:26:06.934Z,10.90
2023-04-25T14:28:34.069Z,11.00
2023-04-25T14:31:01.874Z,11.20
2023-04-25T14:33:29.359Z,11.20
2023-04-25T14:35:57.031Z,11.20
2023-04-25T14:38:26.076Z,11.20
2023-04-25T14:40:55.188Z,11.40
2023-04-25T14:43:22.477Z,11.10
2023-04-25T14:45:49.797Z,10.80
2023-04-25T14:48:19.180Z,10.80
2023-04-25T14:50:47.055Z,10.90
2023-04-25T14:53:14.178Z,10.80
2023-04-25T14:55:42.367Z,10.50
2023-04-25T14:58:10.683Z,10.60
2023-04-25T15:00:38.412Z,10.50
2023-04-25T15:03:05.916Z,10.30
2023-04-25T15:05:33.173Z,10.40
2023-04-25T15:08:00.269Z,10.40
2023-04-25T15:10:27.527Z,10.30
2023-04-25T15:12:54.748Z,10.40
2023-04-25T15:15:26.579Z,10.50
2023-04-25T15:17:59.360Z,10.50
2023-04-25T15:20:27.895Z,10.40
2023-04-25T15:22:55.598Z,10.50
2023-04-25T15:25:22.950Z,10.40
2023-04-25T15:27:52.704Z,10.20
2023-04-25T15:30:20.802Z,10.10
2023-04-25T15:32:48.858Z,10.00
2023-04-25T15:35:16.514Z,10.00
2023-04-25T15:37:44.169Z,9.90
2023-04-25T15:40:16.510Z,10.10
2023-04-25T15:42:48.269Z,10.00
2023-04-25T15:45:18.016Z,10.00
2023-04-25T15:47:45.575Z,10.00
2023-04-25T15:50:13.512Z,10.00
2023-04-25T15:52:41.151Z,10.00
2023-04-25T15:55:09.338Z,10.00
2023-04-25T15:57:37.217Z,10.10
2023-04-25T16:00:11.030Z,9.80
2023-04-25T16:02:42.592Z,9.80
2023-04-25T16:05:11.602Z,9.60
2023-04-25T16:07:40.396Z,9.80
2023-04-25T16:10:09.018Z,9.70
2023-04-25T16:12:37.162Z,9.70
2023-04-25T16:15:04.896Z,9.70
2023-04-25T16:17:33.464Z,9.70
2023-04-25T16:20:04.572Z,9.80
2023-04-25T16:22:32.453Z,9.80
2023-04-25T16:24:59.538Z,9.70
2023-04-25T16:27:26.841Z,9.90
2023-04-25T16:29:53.933Z,9.70
2023-04-25T16:32:21.033Z,9.60
2023-04-25T16:34:48.152Z,9.70
2023-04-25T16:37:15.470Z,9.70
2023-04-25T16:39:42.585Z,9.60
2023-04-25T16:42:09.786Z,9.60
2023-04-25T16:44:36.835Z,9.60
2023-04-25T16:47:06.370Z,9.50
2023-04-25T16:49:33.817Z,9.40
2023-04-25T16:52:01.012Z,9.40
2023-04-25T16:54:28.145Z,9.50
2023-04-25T16:56:55.665Z,9.40
2023-04-25T16:59:22.869Z,9.20
2023-04-25T17:01:50.097Z,9.30
2023-04-25T17:04:17.402Z,9.50
2023-04-25T17:06:44.821Z,9.50
2023-04-25T17:09:12.072Z,9.50
2023-04-25T17:11:39.237Z,9.40
2023-04-25T17:14:06.395Z,9.30
2023-04-25T17:16:38.328Z,9.20
2023-04-25T17:19:06.004Z,9.30
2023-04-25T17:21:33.538Z,9.40
2023-04-25T17:24:00.816Z,9.30
2023-04-25T17:26:28.062Z,9.20
2023-04-25T17:28:55.411Z,9.20
2023-04-25T17:31:23.985Z,9.30
2023-04-25T17:33:51.251Z,9.30
2023-04-25T17:36:18.692Z,9.20
2023-04-25T17:38:45.898Z,9.20
2023-04-25T17:41:15.024Z,9.20
2023-04-25T17:43:44.246Z,9.20
2023-04-25T17:46:11.646Z,9.20
2023-04-25T17:48:38.796Z,9.30
2023-04-25T17:51:07.539Z,9.30
2023-04-25T17:53:35.580Z,9.10
2023-04-25T17:56:05.313Z,8.90
2023-04-25T17:58:34.445Z,9.10
2023-04-25T18:01:01.779Z,9.10
2023-04-25T18:03:29.140Z,9.20
2023-04-25T18:05:56.302Z,9.20
2023-04-25T18:08:23.460Z,9.10
2023-04-25T18:10:51.300Z,9.10
2023-04-25T18:13:21.682Z,9.20
2023-04-25T18:15:48.803Z,9.40
2023-04-25T18:18:20.158Z,9.40
2023-04-25T18:20:47.593Z,9.40
2023-04-25T18:23:14.742Z,9.40
2023-04-25T18:25:41.955Z,9.30
2023-04-25T18:28:11.483Z,9.30
2023-04-25T18:30:38.637Z,9.30
2023-04-25T18:33:05.835Z,9.30
2023-04-25T18:35:33.218Z,9.10
2023-04-25T18:38:00.378Z,9.20
2023-04-25T18:40:27.583Z,9.40
2023-04-25T18:42:54.650Z,9.30
2023-04-25T18:45:21.997Z,9.30
2023-04-25T18:47:49.168Z,9.00
2023-04-25T18:50:20.890Z,9.20
2023-04-25T18:52:48.017Z,9.30
2023-04-25T18:55:15.406Z,9.10
2023-04-25T18:57:43.056Z,9.00
2023-04-25T19:00:11.301Z,9.20
2023-04-25T19:02:38.783Z,8.90
2023-04-25T19:05:06.391Z,9.10
2023-04-25T19:07:33.606Z,8.70
2023-04-25T19:10:00.805Z,8.90
2023-04-25T19:12:27.950Z,8.90
2023-04-25T19:14:55.585Z,9.00
2023-04-25T19:17:23.505Z,9.10
2023-04-25T19:19:50.837Z,9.00
2023-04-25T19:22:18.005Z,9.00
2023-04-25T19:24:47.217Z,9.10
2023-04-25T19:27:16.322Z,9.10
2023-04-25T19:29:48.569Z,9.20
2023-04-25T19:32:15.886Z,9.40
2023-04-25T19:34:42.934Z,9.60
2023-04-25T19:37:10.103Z,9.40
2023-04-25T19:39:37.139Z,9.50
2023-04-25T19:42:04.482Z,9.50
2023-04-25T19:44:31.562Z,9.40
2023-04-25T19:46:59.888Z,9.40
2023-04-25T19:49:27.227Z,9.00
2023-04-25T19:51:54.400Z,9.10
2023-04-25T19:54:23.319Z,8.90
2023-04-25T19:56:50.619Z,8.90
2023-04-25T19:59:17.653Z,9.00
2023-04-25T20:01:45.014Z,9.30
2023-04-25T20:04:12.779Z,9.30
2023-04-25T20:06:39.915Z,9.20
2023-04-25T20:09:09.504Z,9.10
2023-04-25T20:11:36.767Z,8.90
2023-04-25T20:14:05.670Z,9.10
2023-04-25T20:16:32.780Z,9.10
2023-04-25T20:18:59.985Z,9.30
2023-04-25T20:21:28.279Z,9.20
2023-04-25T20:23:55.546Z,9.30
2023-04-25T20:26:22.933Z,9.10
2023-04-25T20:28:50.646Z,9.00
2023-04-25T20:31:18.127Z,8.60
2023-04-25T20:33:46.276Z,8.70
2023-04-25T20:36:15.634Z,8.90
2023-04-25T20:38:42.795Z,9.00
2023-04-25T20:41:10.035Z,9.00
2023-04-25T20:43:38.251Z,9.10
2023-04-25T20:46:05.589Z,9.00
2023-04-25T20:48:33.020Z,9.00
2023-04-25T20:51:00.696Z,8.90
2023-04-25T20:53:27.898Z,9.00
2023-04-25T20:55:55.043Z,9.00
2023-04-25T20:58:22.137Z,9.10
2023-04-25T21:00:50.743Z,8.90
2023-04-25T21:03:18.030Z,8.70
2023-04-25T21:05:45.164Z,8.60
2023-04-25T21:08:12.418Z,8.60
2023-04-25T21:10:39.616Z,8.80
2023-04-25T21:13:06.764Z,9.00
2023-04-25T21:15:34.006Z,9.00
2023-04-25T21:18:02.002Z,9.00
2023-04-25T21:20:29.293Z,9.10
2023-04-25T21:22:56.425Z,9.10
2023-04-25T21:25:31.575Z,8.90
2023-04-25T21:27:59.650Z,8.70
2023-04-25T21:30:27.454Z,8.50
2023-04-25T21:32:54.906Z,8.80
2023-04-25T21:35:22.722Z,8.80
2023-04-25T21:37:50.106Z,8.50
2023-04-25T21:40:17.577Z,8.40
2023-04-25T21:42:49.971Z,8.40
2023-04-25T21:45:17.363Z,8.40
2023-04-25T21:47:46.714Z,8.40
2023-04-25T21:50:14.954Z,8.20
2023-04-25T21:52:42.227Z,8.20
2023-04-25T21:55:10.720Z,7.90
2023-04-25T21:57:37.994Z,8.20
2023-04-25T22:00:13.680Z,8.20
2023-04-25T22:02:41.108Z,8.00
2023-04-25T22:05:08.277Z,7.90
2023-04-25T22:07:35.563Z,8.00
2023-04-25T22:10:02.778Z,7.90
2023-04-25T22:12:29.977Z,7.90
2023-04-25T22:14:57.177Z,7.90
2023-04-25T22:17:27.114Z,8.00
2023-04-25T22:19:54.222Z,7.70
2023-04-25T22:22:21.678Z,7.90
2023-04-25T22:24:49.893Z,7.90
2023-04-25T22:27:17.019Z,8.00
2023-04-25T22:29:44.101Z,8.20
2023-04-25T22:32:11.163Z,8.40
2023-04-25T22:34:38.248Z,8.30
2023-04-25T22:37:05.408Z,8.30
2023-04-25T22:39:32.564Z,8.30
2023-04-25T22:41:59.634Z,8.40
2023-04-25T22:44:26.717Z,8.10
2023-04-25T22:46:54.688Z,8.50
2023-04-25T22:49:21.822Z,8.50
2023-04-25T22:51:54.095Z,8.60
2023-04-25T22:54:21.810Z,8.40
2023-04-25T22:56:49.078Z,8.30
2023-04-25T22:59:16.250Z,8.40
2023-04-25T23:01:43.823Z,8.00
2023-04-25T23:04:11.560Z,8.00
2023-04-25T23:06:40.463Z,8.10
2023-04-25T23:09:09.909Z,8.30
2023-04-25T23:11:37.320Z,8.40
2023-04-25T23:14:05.065Z,8.40
2023-04-25T23:16:32.297Z,8.20
2023-04-25T23:18:59.832Z,8.20
2023-04-25T23:21:26.980Z,8.20
2023-04-25T23:23:54.581Z,8.20
2023-04-25T23:26:22.383Z,8.30
2023-04-25T23:28:49.469Z,8.10
2023-04-25T23:31:16.709Z,7.80
2023-04-25T23:33:43.854Z,7.90
2023-04-25T23:36:19.967Z,8.10
2023-04-25T23:38:47.903Z,8.10
2023-04-25T23:41:15.060Z,8.10
2023-04-25T23:43:42.310Z,8.10
2023-04-25T23:46:09.697Z,8.10
2023-04-25T23:48:36.963Z,8.00
2023-04-25T23:51:04.042Z,7.80
2023-04-25T23:53:31.401Z,7.70
2023-04-25T23:55:58.532Z,7.80
2023-04-25T23:58:25.726Z,7.40
